Celebrity Mercury — 9HJG9 — position and weather

sailwx.info

Track history (hours):
 
Tides and Currents Weather Stations Pressure Air Temp Water Temp Dewpoint Dewpoint Depression Visibility Wind Speed Wind Dir Waves Ship Positions

Celebrity Mercury

Last reported at 2019-Apr-26 04:30 UTC. Time now 2019-Apr-26 04:36 UTC.
Position N 40°44' E 014°13'.

Length 264 m; draft 8.5 m.

Type: Ship. MMSI: 249053000.

Date/timePositionNaut miles runAvg speedWind from/ knotsBaromVisibWave heightAir tempDewpointWater temp
2019-Apr-26 04:30N 40°44' E 014°13'713.4
2019-Apr-26 04:01N 40°39' E 014°07'713.1
2019-Apr-26 03:31N 40°36' E 013°59'713.1
2019-Apr-26 03:01N 40°34' E 013°51'713.7
2019-Apr-26 02:31N 40°36' E 013°43'714.5
2019-Apr-26 02:01N 40°38' E 013°33'918.4
2019-Apr-26 01:30N 40°41' E 013°22'918.0
2019-Apr-26 01:00N 40°44' E 013°10'1717.8
2019-Apr-26 00:03N 40°49' E 012°49'117 4.8
2019-Apr-24 23:32N 41°39' E 010°29'1018.2
2019-Apr-24 22:58N 41°39' E 010°15'7115.5
2019-Apr-24 18:23N 41°36' E 008°41'  
2019-Apr-22 09:00N 37°48' E 011°42'6816.9 120 / 501001.0 2.2 19.0 17.0
2019-Apr-22 05:00N 37°00' E 012°42'133 2.7 110 / 401006.0 2.2 17.0 16.0
2019-Apr-20 03:49N 37°26' E 015°25'1013.1
2019-Apr-20 03:01N 37°23' E 015°38'012.6
2019-Apr-20 03:00N 37°23' E 015°38'713.0
2019-Apr-20 02:30N 37°22' E 015°46'713.2
2019-Apr-20 02:00N 37°21' E 015°55'713.2
2019-Apr-20 01:30N 37°20' E 016°03'1013.3
2019-Apr-20 00:45N 37°19' E 016°15'413.3
2019-Apr-20 00:29N 37°18' E 016°20'713.2
2019-Apr-19 23:56N 37°16' E 016°28'23 7.7
2019-Apr-19 21:00N 37°06' E 016°54'16114.7 010 / 31026.010.8 16.0 18.0
2019-Apr-19 10:00N 36°36' E 020°12'7514.9 1026.027.0 19.0 18.0
2019-Apr-19 05:00N 36°18' E 021°42'11111.1 030 / 121013.010.8 16.0 17.0
2019-Apr-18 19:02N 37°18' E 023°39'114.4
2019-Apr-18 18:58N 37°19' E 023°39'714.3
2019-Apr-18 18:30N 37°25' E 023°40'714.1
2019-Apr-18 18:00N 37°32' E 023°42'713.9
2019-Apr-18 17:31N 37°39' E 023°43'713.8
2019-Apr-18 17:01N 37°45' E 023°39'713.7
2019-Apr-18 16:31N 37°52' E 023°36'5 9.5
2019-Apr-18 16:00N 37°56' E 023°38'0 0.1
2019-Apr-18 15:29N 37°56' E 023°38'0 0.0
2019-Apr-18 14:59N 37°56' E 023°38'0 0.0
2019-Apr-18 14:29N 37°56' E 023°38'713.7
2019-Apr-18 13:59N 37°50' E 023°36'713.8
2019-Apr-18 13:29N 37°56' E 023°38'0 0.0
2019-Apr-18 12:59N 37°56' E 023°38'0 0.0
2019-Apr-18 12:29N 37°56' E 023°38'0 0.0
2019-Apr-18 11:59N 37°56' E 023°38'0 0.0
2019-Apr-18 11:29N 37°56' E 023°38'0 0.0
2019-Apr-18 10:59N 37°56' E 023°38'0 0.0
2019-Apr-18 10:29N 37°56' E 023°38'0 0.0
2019-Apr-18 09:59N 37°56' E 023°38'0 0.0
2019-Apr-18 09:28N 37°56' E 023°38'0 0.0
2019-Apr-18 09:00N 37°56' E 023°38'0 0.0
2019-Apr-18 08:27N 37°56' E 023°38'0 0.0
2019-Apr-18 08:00N 37°56' E 023°38'0 0.0
2019-Apr-18 07:30N 37°56' E 023°38'0 0.0
2019-Apr-18 07:00N 37°56' E 023°38'0 0.0
2019-Apr-18 06:30N 37°56' E 023°38'0 0.0
2019-Apr-18 06:00N 37°56' E 023°38'0 0.0
2019-Apr-18 05:30N 37°56' E 023°38'0 0.0
2019-Apr-18 05:00N 37°56' E 023°38'0 0.0
2019-Apr-18 04:30N 37°56' E 023°38'0 0.0
2019-Apr-18 03:59N 37°56' E 023°38'0 0.0
2019-Apr-18 03:29N 37°56' E 023°38'0 0.0
2019-Apr-18 02:59N 37°56' E 023°38'0 0.0
2019-Apr-18 02:29N 37°56' E 023°38'0 0.3
2019-Apr-18 02:01N 37°56' E 023°38'2 3.7
2019-Apr-18 01:30N 37°55' E 023°37'510.8
2019-Apr-18 01:00N 37°50' E 023°40'613.0
2019-Apr-18 00:31N 37°44' E 023°43'713.1
2019-Apr-18 00:00N 37°38' E 023°47'815.9
2019-Apr-17 23:29N 37°30' E 023°50'  
Track history (hours):
 
Tides and Currents Weather Stations Pressure Air Temp Water Temp Dewpoint Dewpoint Depression Visibility Wind Speed Wind Dir Waves Ship Positions

Celebrity Mercury

Last reported at 2019-Apr-26 04:30 UTC. Time now 2019-Apr-26 04:36 UTC.
Position N 40°44' E 014°13'.

Length 264 m; draft 8.5 m.

Type: Ship. MMSI: 249053000.

Date/timePositionNaut miles runAvg speedWind from/ knotsBaromVisibWave heightAir tempDewpointWater temp
2019-Apr-26 04:30N 40°44' E 014°13'713.4
2019-Apr-26 04:01N 40°39' E 014°07'713.1
2019-Apr-26 03:31N 40°36' E 013°59'713.1
2019-Apr-26 03:01N 40°34' E 013°51'713.7
2019-Apr-26 02:31N 40°36' E 013°43'714.5
2019-Apr-26 02:01N 40°38' E 013°33'918.4
2019-Apr-26 01:30N 40°41' E 013°22'918.0
2019-Apr-26 01:00N 40°44' E 013°10'1717.8
2019-Apr-26 00:03N 40°49' E 012°49'117 4.8
2019-Apr-24 23:32N 41°39' E 010°29'1018.2
2019-Apr-24 22:58N 41°39' E 010°15'7115.5
2019-Apr-24 18:23N 41°36' E 008°41'  
2019-Apr-22 09:00N 37°48' E 011°42'6816.9 120 / 501001.0 2.2 19.0 17.0
2019-Apr-22 05:00N 37°00' E 012°42'133 2.7 110 / 401006.0 2.2 17.0 16.0
2019-Apr-20 03:49N 37°26' E 015°25'1013.1
2019-Apr-20 03:01N 37°23' E 015°38'012.6
2019-Apr-20 03:00N 37°23' E 015°38'713.0
2019-Apr-20 02:30N 37°22' E 015°46'713.2
2019-Apr-20 02:00N 37°21' E 015°55'713.2
2019-Apr-20 01:30N 37°20' E 016°03'1013.3
2019-Apr-20 00:45N 37°19' E 016°15'413.3
2019-Apr-20 00:29N 37°18' E 016°20'713.2
2019-Apr-19 23:56N 37°16' E 016°28'23 7.7
2019-Apr-19 21:00N 37°06' E 016°54'16114.7 010 / 31026.010.8 16.0 18.0
2019-Apr-19 10:00N 36°36' E 020°12'7514.9 1026.027.0 19.0 18.0
2019-Apr-19 05:00N 36°18' E 021°42'11111.1 030 / 121013.010.8 16.0 17.0
2019-Apr-18 19:02N 37°18' E 023°39'114.4
2019-Apr-18 18:58N 37°19' E 023°39'714.3
2019-Apr-18 18:30N 37°25' E 023°40'714.1
2019-Apr-18 18:00N 37°32' E 023°42'713.9
2019-Apr-18 17:31N 37°39' E 023°43'713.8
2019-Apr-18 17:01N 37°45' E 023°39'713.7
2019-Apr-18 16:31N 37°52' E 023°36'5 9.5
2019-Apr-18 16:00N 37°56' E 023°38'0 0.1
2019-Apr-18 15:29N 37°56' E 023°38'0 0.0
2019-Apr-18 14:59N 37°56' E 023°38'0 0.0
2019-Apr-18 14:29N 37°56' E 023°38'713.7
2019-Apr-18 13:59N 37°50' E 023°36'713.8
2019-Apr-18 13:29N 37°56' E 023°38'0 0.0
2019-Apr-18 12:59N 37°56' E 023°38'0 0.0
2019-Apr-18 12:29N 37°56' E 023°38'0 0.0
2019-Apr-18 11:59N 37°56' E 023°38'0 0.0
2019-Apr-18 11:29N 37°56' E 023°38'0 0.0
2019-Apr-18 10:59N 37°56' E 023°38'0 0.0
2019-Apr-18 10:29N 37°56' E 023°38'0 0.0
2019-Apr-18 09:59N 37°56' E 023°38'0 0.0
2019-Apr-18 09:28N 37°56' E 023°38'0 0.0
2019-Apr-18 09:00N 37°56' E 023°38'0 0.0
2019-Apr-18 08:27N 37°56' E 023°38'0 0.0
2019-Apr-18 08:00N 37°56' E 023°38'0 0.0
2019-Apr-18 07:30N 37°56' E 023°38'0 0.0
2019-Apr-18 07:00N 37°56' E 023°38'0 0.0
2019-Apr-18 06:30N 37°56' E 023°38'0 0.0
2019-Apr-18 06:00N 37°56' E 023°38'0 0.0
2019-Apr-18 05:30N 37°56' E 023°38'0 0.0
2019-Apr-18 05:00N 37°56' E 023°38'0 0.0
2019-Apr-18 04:30N 37°56' E 023°38'0 0.0
2019-Apr-18 03:59N 37°56' E 023°38'0 0.0
2019-Apr-18 03:29N 37°56' E 023°38'0 0.0
2019-Apr-18 02:59N 37°56' E 023°38'0 0.0
2019-Apr-18 02:29N 37°56' E 023°38'0 0.3
2019-Apr-18 02:01N 37°56' E 023°38'2 3.7
2019-Apr-18 01:30N 37°55' E 023°37'510.8
2019-Apr-18 01:00N 37°50' E 023°40'613.0
2019-Apr-18 00:31N 37°44' E 023°43'713.1
2019-Apr-18 00:00N 37°38' E 023°47'815.9
2019-Apr-17 23:29N 37°30' E 023°50'  

Dump ship's entire track history